sensor_id;sensor_type;location;lat;lon;timestamp;P1;durP1;ratioP1;P2;durP2;ratioP2
3967;SDS011;9221;42.646;23.380;2023-03-14T00:00:12;6.13;;;2.60;;
3967;SDS011;9221;42.646;23.380;2023-03-14T00:02:39;7.13;;;3.03;;
3967;SDS011;9221;42.646;23.380;2023-03-14T00:05:05;6.63;;;2.87;;
3967;SDS011;9221;42.646;23.380;2023-03-14T00:07:34;8.60;;;3.00;;
3967;SDS011;9221;42.646;23.380;2023-03-14T00:10:06;9.30;;;3.27;;
3967;SDS011;9221;42.646;23.380;2023-03-14T00:12:34;10.00;;;2.90;;
3967;SDS011;9221;42.646;23.380;2023-03-14T00:14:59;12.90;;;3.17;;
3967;SDS011;9221;42.646;23.380;2023-03-14T00:17:27;6.07;;;2.83;;
3967;SDS011;9221;42.646;23.380;2023-03-14T00:19:52;13.40;;;3.20;;
3967;SDS011;9221;42.646;23.380;2023-03-14T00:22:19;6.37;;;2.43;;
3967;SDS011;9221;42.646;23.380;2023-03-14T00:24:45;13.43;;;4.10;;
3967;SDS011;9221;42.646;23.380;2023-03-14T00:27:10;6.50;;;2.47;;
3967;SDS011;9221;42.646;23.380;2023-03-14T00:29:35;9.90;;;3.00;;
3967;SDS011;9221;42.646;23.380;2023-03-14T00:32:01;6.00;;;3.00;;
3967;SDS011;9221;42.646;23.380;2023-03-14T00:34:29;8.00;;;3.07;;
3967;SDS011;9221;42.646;23.380;2023-03-14T00:36:56;9.77;;;3.57;;
3967;SDS011;9221;42.646;23.380;2023-03-14T00:39:21;11.83;;;3.20;;
3967;SDS011;9221;42.646;23.380;2023-03-14T00:41:47;13.93;;;3.40;;
3967;SDS011;9221;42.646;23.380;2023-03-14T00:44:12;7.33;;;3.00;;
3967;SDS011;9221;42.646;23.380;2023-03-14T00:46:38;11.13;;;3.43;;
3967;SDS011;9221;42.646;23.380;2023-03-14T00:49:04;10.50;;;3.57;;
3967;SDS011;9221;42.646;23.380;2023-03-14T00:51:29;7.30;;;3.00;;
3967;SDS011;9221;42.646;23.380;2023-03-14T00:53:55;11.20;;;3.80;;
3967;SDS011;9221;42.646;23.380;2023-03-14T00:59:04;6.67;;;2.70;;
3967;SDS011;9221;42.646;23.380;2023-03-14T01:01:29;6.47;;;2.90;;
3967;SDS011;9221;42.646;23.380;2023-03-14T01:03:55;12.87;;;3.67;;
3967;SDS011;9221;42.646;23.380;2023-03-14T01:06:22;14.33;;;4.20;;
3967;SDS011;9221;42.646;23.380;2023-03-14T01:08:49;6.90;;;3.47;;
3967;SDS011;9221;42.646;23.380;2023-03-14T01:11:17;8.70;;;3.43;;
3967;SDS011;9221;42.646;23.380;2023-03-14T01:13:44;8.87;;;3.60;;
3967;SDS011;9221;42.646;23.380;2023-03-14T01:16:11;11.43;;;3.20;;
3967;SDS011;9221;42.646;23.380;2023-03-14T01:18:37;10.30;;;3.70;;
3967;SDS011;9221;42.646;23.380;2023-03-14T01:21:09;9.23;;;3.47;;
3967;SDS011;9221;42.646;23.380;2023-03-14T01:23:55;11.30;;;3.53;;
3967;SDS011;9221;42.646;23.380;2023-03-14T01:26:23;8.43;;;3.40;;
3967;SDS011;9221;42.646;23.380;2023-03-14T01:28:50;9.70;;;3.50;;
3967;SDS011;9221;42.646;23.380;2023-03-14T01:31:18;12.00;;;3.70;;
3967;SDS011;9221;42.646;23.380;2023-03-14T01:33:43;6.50;;;3.20;;
3967;SDS011;9221;42.646;23.380;2023-03-14T01:36:11;9.10;;;3.03;;
3967;SDS011;9221;42.646;23.380;2023-03-14T01:38:37;11.93;;;3.50;;
3967;SDS011;9221;42.646;23.380;2023-03-14T01:41:03;9.60;;;3.30;;
3967;SDS011;9221;42.646;23.380;2023-03-14T01:43:30;6.00;;;2.90;;
3967;SDS011;9221;42.646;23.380;2023-03-14T01:48:42;10.30;;;4.07;;
3967;SDS011;9221;42.646;23.380;2023-03-14T01:51:12;9.50;;;3.67;;
3967;SDS011;9221;42.646;23.380;2023-03-14T01:53:41;10.57;;;3.90;;
3967;SDS011;9221;42.646;23.380;2023-03-14T01:56:09;11.47;;;3.80;;
3967;SDS011;9221;42.646;23.380;2023-03-14T01:58:38;8.23;;;3.20;;
3967;SDS011;9221;42.646;23.380;2023-03-14T02:01:06;9.90;;;4.70;;
3967;SDS011;9221;42.646;23.380;2023-03-14T02:03:35;6.83;;;3.20;;
3967;SDS011;9221;42.646;23.380;2023-03-14T02:06:09;7.63;;;3.70;;
3967;SDS011;9221;42.646;23.380;2023-03-14T02:08:36;16.63;;;4.40;;
3967;SDS011;9221;42.646;23.380;2023-03-14T02:11:04;14.20;;;4.10;;
3967;SDS011;9221;42.646;23.380;2023-03-14T02:13:32;15.97;;;4.50;;
3967;SDS011;9221;42.646;23.380;2023-03-14T02:15:57;13.33;;;4.13;;
3967;SDS011;9221;42.646;23.380;2023-03-14T02:18:23;16.60;;;5.50;;
3967;SDS011;9221;42.646;23.380;2023-03-14T02:23:31;15.90;;;5.27;;
3967;SDS011;9221;42.646;23.380;2023-03-14T02:26:20;19.47;;;6.40;;
3967;SDS011;9221;42.646;23.380;2023-03-14T02:28:48;20.40;;;6.67;;
3967;SDS011;9221;42.646;23.380;2023-03-14T02:31:16;23.97;;;7.10;;
3967;SDS011;9221;42.646;23.380;2023-03-14T02:33:41;22.00;;;7.37;;
3967;SDS011;9221;42.646;23.380;2023-03-14T02:36:07;20.30;;;6.70;;
3967;SDS011;9221;42.646;23.380;2023-03-14T02:41:03;23.93;;;7.20;;
3967;SDS011;9221;42.646;23.380;2023-03-14T02:43:29;22.20;;;7.60;;
3967;SDS011;9221;42.646;23.380;2023-03-14T02:45:54;22.33;;;7.73;;
3967;SDS011;9221;42.646;23.380;2023-03-14T02:48:24;22.73;;;7.53;;
3967;SDS011;9221;42.646;23.380;2023-03-14T02:50:57;24.10;;;7.53;;
3967;SDS011;9221;42.646;23.380;2023-03-14T02:53:25;27.00;;;8.40;;
3967;SDS011;9221;42.646;23.380;2023-03-14T02:55:52;27.57;;;9.40;;
3967;SDS011;9221;42.646;23.380;2023-03-14T02:58:18;24.40;;;8.47;;
3967;SDS011;9221;42.646;23.380;2023-03-14T03:00:43;18.60;;;7.37;;
3967;SDS011;9221;42.646;23.380;2023-03-14T03:03:09;20.83;;;7.20;;
3967;SDS011;9221;42.646;23.380;2023-03-14T03:05:35;26.90;;;7.90;;
3967;SDS011;9221;42.646;23.380;2023-03-14T03:08:00;18.20;;;7.17;;
3967;SDS011;9221;42.646;23.380;2023-03-14T03:10:26;21.43;;;7.50;;
3967;SDS011;9221;42.646;23.380;2023-03-14T03:12:52;25.60;;;8.90;;
3967;SDS011;9221;42.646;23.380;2023-03-14T03:15:18;23.93;;;7.40;;
3967;SDS011;9221;42.646;23.380;2023-03-14T03:17:43;18.53;;;7.23;;
3967;SDS011;9221;42.646;23.380;2023-03-14T03:20:09;41.43;;;7.47;;
3967;SDS011;9221;42.646;23.380;2023-03-14T03:22:35;21.27;;;7.80;;
3967;SDS011;9221;42.646;23.380;2023-03-14T03:25:02;16.73;;;6.50;;
3967;SDS011;9221;42.646;23.380;2023-03-14T03:27:32;24.80;;;7.17;;
3967;SDS011;9221;42.646;23.380;2023-03-14T03:29:58;24.70;;;7.90;;
3967;SDS011;9221;42.646;23.380;2023-03-14T03:32:24;27.20;;;8.07;;
3967;SDS011;9221;42.646;23.380;2023-03-14T03:34:50;19.63;;;7.50;;
3967;SDS011;9221;42.646;23.380;2023-03-14T03:37:16;22.37;;;7.30;;
3967;SDS011;9221;42.646;23.380;2023-03-14T03:39:41;23.17;;;8.13;;
3967;SDS011;9221;42.646;23.380;2023-03-14T03:42:07;33.63;;;7.13;;
3967;SDS011;9221;42.646;23.380;2023-03-14T03:44:32;24.83;;;7.07;;
3967;SDS011;9221;42.646;23.380;2023-03-14T03:46:57;25.90;;;7.40;;
3967;SDS011;9221;42.646;23.380;2023-03-14T03:49:23;15.50;;;7.00;;
3967;SDS011;9221;42.646;23.380;2023-03-14T03:51:48;24.10;;;6.63;;
3967;SDS011;9221;42.646;23.380;2023-03-14T03:54:14;25.07;;;8.30;;
3967;SDS011;9221;42.646;23.380;2023-03-14T03:56:39;32.20;;;8.77;;
3967;SDS011;9221;42.646;23.380;2023-03-14T03:59:04;22.20;;;7.10;;
3967;SDS011;9221;42.646;23.380;2023-03-14T04:01:30;18.73;;;6.97;;
3967;SDS011;9221;42.646;23.380;2023-03-14T04:03:55;22.97;;;6.73;;
3967;SDS011;9221;42.646;23.380;2023-03-14T04:06:21;30.43;;;7.27;;
3967;SDS011;9221;42.646;23.380;2023-03-14T04:08:46;28.30;;;8.47;;
3967;SDS011;9221;42.646;23.380;2023-03-14T04:11:12;20.93;;;7.40;;
3967;SDS011;9221;42.646;23.380;2023-03-14T04:13:37;16.67;;;7.47;;
3967;SDS011;9221;42.646;23.380;2023-03-14T04:16:02;22.37;;;7.20;;
3967;SDS011;9221;42.646;23.380;2023-03-14T04:18:28;23.33;;;7.53;;
3967;SDS011;9221;42.646;23.380;2023-03-14T04:20:55;20.33;;;6.90;;
3967;SDS011;9221;42.646;23.380;2023-03-14T04:23:22;21.10;;;7.20;;
3967;SDS011;9221;42.646;23.380;2023-03-14T04:25:49;22.67;;;6.40;;
3967;SDS011;9221;42.646;23.380;2023-03-14T04:28:16;23.63;;;8.00;;
3967;SDS011;9221;42.646;23.380;2023-03-14T04:30:41;18.17;;;7.00;;
3967;SDS011;9221;42.646;23.380;2023-03-14T04:33:07;28.50;;;7.77;;
3967;SDS011;9221;42.646;23.380;2023-03-14T04:35:33;24.63;;;7.67;;
3967;SDS011;9221;42.646;23.380;2023-03-14T04:37:58;22.00;;;7.30;;
3967;SDS011;9221;42.646;23.380;2023-03-14T04:40:24;25.97;;;7.13;;
3967;SDS011;9221;42.646;23.380;2023-03-14T04:42:50;20.20;;;7.13;;
3967;SDS011;9221;42.646;23.380;2023-03-14T04:45:15;20.50;;;7.47;;
3967;SDS011;9221;42.646;23.380;2023-03-14T04:47:41;31.47;;;7.60;;
3967;SDS011;9221;42.646;23.380;2023-03-14T04:50:07;19.93;;;7.10;;
3967;SDS011;9221;42.646;23.380;2023-03-14T04:52:33;28.33;;;6.97;;
3967;SDS011;9221;42.646;23.380;2023-03-14T04:54:58;28.40;;;7.57;;
3967;SDS011;9221;42.646;23.380;2023-03-14T04:57:24;25.97;;;7.73;;
3967;SDS011;9221;42.646;23.380;2023-03-14T04:59:49;21.20;;;7.97;;
3967;SDS011;9221;42.646;23.380;2023-03-14T05:02:14;18.53;;;6.13;;
3967;SDS011;9221;42.646;23.380;2023-03-14T05:04:40;18.70;;;6.97;;
3967;SDS011;9221;42.646;23.380;2023-03-14T05:07:05;24.27;;;8.30;;
3967;SDS011;9221;42.646;23.380;2023-03-14T05:09:30;27.80;;;7.80;;
3967;SDS011;9221;42.646;23.380;2023-03-14T05:11:56;17.57;;;6.87;;
3967;SDS011;9221;42.646;23.380;2023-03-14T05:14:21;26.10;;;8.13;;
3967;SDS011;9221;42.646;23.380;2023-03-14T05:16:47;29.13;;;8.40;;
3967;SDS011;9221;42.646;23.380;2023-03-14T05:19:12;20.73;;;7.33;;
3967;SDS011;9221;42.646;23.380;2023-03-14T05:21:37;22.67;;;7.70;;
3967;SDS011;9221;42.646;23.380;2023-03-14T05:24:03;24.10;;;7.30;;
3967;SDS011;9221;42.646;23.380;2023-03-14T05:26:28;17.20;;;6.87;;
3967;SDS011;9221;42.646;23.380;2023-03-14T05:28:54;22.40;;;6.43;;
3967;SDS011;9221;42.646;23.380;2023-03-14T05:31:20;15.83;;;5.50;;
3967;SDS011;9221;42.646;23.380;2023-03-14T05:33:45;8.40;;;3.83;;
3967;SDS011;9221;42.646;23.380;2023-03-14T05:36:11;8.30;;;3.30;;
3967;SDS011;9221;42.646;23.380;2023-03-14T05:38:37;7.77;;;2.77;;
3967;SDS011;9221;42.646;23.380;2023-03-14T05:41:02;10.57;;;3.10;;
3967;SDS011;9221;42.646;23.380;2023-03-14T05:43:28;9.63;;;3.37;;
3967;SDS011;9221;42.646;23.380;2023-03-14T05:45:53;20.63;;;4.10;;
3967;SDS011;9221;42.646;23.380;2023-03-14T05:48:19;9.73;;;3.63;;
3967;SDS011;9221;42.646;23.380;2023-03-14T05:50:44;9.70;;;3.57;;
3967;SDS011;9221;42.646;23.380;2023-03-14T05:53:10;21.73;;;4.77;;
3967;SDS011;9221;42.646;23.380;2023-03-14T05:55:35;17.17;;;6.40;;
3967;SDS011;9221;42.646;23.380;2023-03-14T05:58:00;12.60;;;4.80;;
3967;SDS011;9221;42.646;23.380;2023-03-14T06:00:26;15.97;;;5.37;;
3967;SDS011;9221;42.646;23.380;2023-03-14T06:02:51;17.70;;;4.37;;
3967;SDS011;9221;42.646;23.380;2023-03-14T06:05:17;13.03;;;4.27;;
3967;SDS011;9221;42.646;23.380;2023-03-14T06:07:42;16.27;;;4.83;;
3967;SDS011;9221;42.646;23.380;2023-03-14T06:10:08;10.63;;;5.00;;
3967;SDS011;9221;42.646;23.380;2023-03-14T06:12:34;16.37;;;4.60;;
3967;SDS011;9221;42.646;23.380;2023-03-14T06:14:59;17.27;;;4.90;;
3967;SDS011;9221;42.646;23.380;2023-03-14T06:17:25;13.30;;;5.00;;
3967;SDS011;9221;42.646;23.380;2023-03-14T06:19:50;19.07;;;5.17;;
3967;SDS011;9221;42.646;23.380;2023-03-14T06:22:15;16.73;;;4.70;;
3967;SDS011;9221;42.646;23.380;2023-03-14T06:24:41;12.73;;;4.73;;
3967;SDS011;9221;42.646;23.380;2023-03-14T06:27:06;17.43;;;6.87;;
3967;SDS011;9221;42.646;23.380;2023-03-14T06:29:32;16.23;;;6.30;;
3967;SDS011;9221;42.646;23.380;2023-03-14T06:31:57;17.00;;;5.57;;
3967;SDS011;9221;42.646;23.380;2023-03-14T06:34:22;20.67;;;5.43;;
3967;SDS011;9221;42.646;23.380;2023-03-14T06:36:48;9.60;;;4.30;;
3967;SDS011;9221;42.646;23.380;2023-03-14T06:39:13;10.27;;;4.77;;
3967;SDS011;9221;42.646;23.380;2023-03-14T06:41:39;10.83;;;4.53;;
3967;SDS011;9221;42.646;23.380;2023-03-14T06:44:04;11.27;;;4.70;;
3967;SDS011;9221;42.646;23.380;2023-03-14T06:46:29;15.80;;;4.37;;
3967;SDS011;9221;42.646;23.380;2023-03-14T06:48:55;10.50;;;4.40;;
3967;SDS011;9221;42.646;23.380;2023-03-14T06:51:20;15.10;;;4.73;;
3967;SDS011;9221;42.646;23.380;2023-03-14T06:53:46;17.60;;;4.43;;
3967;SDS011;9221;42.646;23.380;2023-03-14T06:56:12;16.90;;;4.80;;
3967;SDS011;9221;42.646;23.380;2023-03-14T06:58:37;10.10;;;4.20;;
3967;SDS011;9221;42.646;23.380;2023-03-14T07:01:02;20.03;;;5.03;;
3967;SDS011;9221;42.646;23.380;2023-03-14T07:03:28;12.17;;;4.47;;
3967;SDS011;9221;42.646;23.380;2023-03-14T07:05:54;14.80;;;5.00;;
3967;SDS011;9221;42.646;23.380;2023-03-14T07:08:19;12.03;;;5.33;;
3967;SDS011;9221;42.646;23.380;2023-03-14T07:10:45;19.73;;;4.90;;
3967;SDS011;9221;42.646;23.380;2023-03-14T07:13:11;10.10;;;4.23;;
3967;SDS011;9221;42.646;23.380;2023-03-14T07:15:36;17.73;;;5.43;;
3967;SDS011;9221;42.646;23.380;2023-03-14T07:18:01;18.70;;;5.97;;
3967;SDS011;9221;42.646;23.380;2023-03-14T07:20:27;14.30;;;5.00;;
3967;SDS011;9221;42.646;23.380;2023-03-14T07:22:53;18.57;;;6.20;;
3967;SDS011;9221;42.646;23.380;2023-03-14T07:25:19;14.33;;;5.53;;
3967;SDS011;9221;42.646;23.380;2023-03-14T07:27:45;19.87;;;5.30;;
3967;SDS011;9221;42.646;23.380;2023-03-14T07:30:13;13.63;;;5.40;;
3967;SDS011;9221;42.646;23.380;2023-03-14T07:32:38;18.70;;;5.87;;
3967;SDS011;9221;42.646;23.380;2023-03-14T07:35:04;16.07;;;4.63;;
3967;SDS011;9221;42.646;23.380;2023-03-14T07:37:30;21.73;;;5.83;;
3967;SDS011;9221;42.646;23.380;2023-03-14T07:39:55;16.07;;;5.00;;
3967;SDS011;9221;42.646;23.380;2023-03-14T07:42:21;17.50;;;5.60;;
3967;SDS011;9221;42.646;23.380;2023-03-14T07:44:46;17.47;;;5.43;;
3967;SDS011;9221;42.646;23.380;2023-03-14T07:47:11;14.73;;;4.77;;
3967;SDS011;9221;42.646;23.380;2023-03-14T07:49:37;22.43;;;7.20;;
3967;SDS011;9221;42.646;23.380;2023-03-14T07:52:02;17.23;;;7.93;;
3967;SDS011;9221;42.646;23.380;2023-03-14T07:54:28;23.90;;;7.73;;
3967;SDS011;9221;42.646;23.380;2023-03-14T07:56:53;36.93;;;9.43;;
3967;SDS011;9221;42.646;23.380;2023-03-14T07:59:19;29.77;;;8.47;;
3967;SDS011;9221;42.646;23.380;2023-03-14T08:01:44;22.67;;;7.73;;
3967;SDS011;9221;42.646;23.380;2023-03-14T08:04:10;15.83;;;7.13;;
3967;SDS011;9221;42.646;23.380;2023-03-14T08:06:35;32.47;;;8.30;;
3967;SDS011;9221;42.646;23.380;2023-03-14T08:09:01;25.87;;;8.33;;
3967;SDS011;9221;42.646;23.380;2023-03-14T08:11:27;24.33;;;7.50;;
3967;SDS011;9221;42.646;23.380;2023-03-14T08:13:53;26.10;;;9.80;;
3967;SDS011;9221;42.646;23.380;2023-03-14T08:16:18;25.47;;;8.53;;
3967;SDS011;9221;42.646;23.380;2023-03-14T08:18:44;18.70;;;7.73;;
3967;SDS011;9221;42.646;23.380;2023-03-14T08:21:10;20.43;;;8.23;;
3967;SDS011;9221;42.646;23.380;2023-03-14T08:23:36;17.70;;;7.90;;
3967;SDS011;9221;42.646;23.380;2023-03-14T08:26:01;18.87;;;7.80;;
3967;SDS011;9221;42.646;23.380;2023-03-14T08:28:27;22.27;;;7.97;;
3967;SDS011;9221;42.646;23.380;2023-03-14T08:30:58;27.53;;;8.80;;
3967;SDS011;9221;42.646;23.380;2023-03-14T08:33:24;20.13;;;7.80;;
3967;SDS011;9221;42.646;23.380;2023-03-14T08:35:54;21.00;;;8.43;;
3967;SDS011;9221;42.646;23.380;2023-03-14T08:38:20;30.77;;;9.00;;
3967;SDS011;9221;42.646;23.380;2023-03-14T08:40:46;20.83;;;7.93;;
3967;SDS011;9221;42.646;23.380;2023-03-14T08:43:11;17.43;;;7.30;;
3967;SDS011;9221;42.646;23.380;2023-03-14T08:45:36;29.80;;;8.50;;
3967;SDS011;9221;42.646;23.380;2023-03-14T08:48:02;23.50;;;8.23;;
3967;SDS011;9221;42.646;23.380;2023-03-14T08:50:28;20.02;;;8.68;;
3967;SDS011;9221;42.646;23.380;2023-03-14T08:52:53;17.60;;;8.52;;
3967;SDS011;9221;42.646;23.380;2023-03-14T08:55:19;21.80;;;7.73;;
3967;SDS011;9221;42.646;23.380;2023-03-14T08:57:45;21.77;;;7.87;;
3967;SDS011;9221;42.646;23.380;2023-03-14T09:00:10;15.23;;;7.10;;
3967;SDS011;9221;42.646;23.380;2023-03-14T09:02:39;28.80;;;7.07;;
3967;SDS011;9221;42.646;23.380;2023-03-14T09:05:05;15.67;;;6.80;;
3967;SDS011;9221;42.646;23.380;2023-03-14T09:07:31;23.80;;;6.80;;
3967;SDS011;9221;42.646;23.380;2023-03-14T09:09:57;15.23;;;6.93;;
3967;SDS011;9221;42.646;23.380;2023-03-14T09:12:22;11.53;;;6.13;;
3967;SDS011;9221;42.646;23.380;2023-03-14T09:14:48;18.60;;;7.60;;
3967;SDS011;9221;42.646;23.380;2023-03-14T09:17:13;20.73;;;7.47;;
3967;SDS011;9221;42.646;23.380;2023-03-14T09:19:38;21.20;;;7.17;;
3967;SDS011;9221;42.646;23.380;2023-03-14T09:22:04;15.47;;;6.87;;
3967;SDS011;9221;42.646;23.380;2023-03-14T09:24:29;17.33;;;6.90;;
3967;SDS011;9221;42.646;23.380;2023-03-14T09:26:55;18.73;;;6.57;;
3967;SDS011;9221;42.646;23.380;2023-03-14T09:29:22;16.33;;;6.33;;
3967;SDS011;9221;42.646;23.380;2023-03-14T09:31:47;13.67;;;5.90;;
3967;SDS011;9221;42.646;23.380;2023-03-14T09:34:13;11.90;;;5.50;;
3967;SDS011;9221;42.646;23.380;2023-03-14T09:36:38;13.13;;;5.87;;
3967;SDS011;9221;42.646;23.380;2023-03-14T09:39:04;9.17;;;4.70;;
3967;SDS011;9221;42.646;23.380;2023-03-14T09:41:31;12.37;;;5.50;;
3967;SDS011;9221;42.646;23.380;2023-03-14T09:44:04;11.00;;;4.80;;
3967;SDS011;9221;42.646;23.380;2023-03-14T09:46:34;12.53;;;4.60;;
3967;SDS011;9221;42.646;23.380;2023-03-14T09:49:02;19.30;;;5.57;;
3967;SDS011;9221;42.646;23.380;2023-03-14T09:51:35;11.97;;;4.97;;
3967;SDS011;9221;42.646;23.380;2023-03-14T09:54:02;15.43;;;6.10;;
3967;SDS011;9221;42.646;23.380;2023-03-14T09:56:31;13.73;;;6.30;;
3967;SDS011;9221;42.646;23.380;2023-03-14T09:58:59;11.70;;;5.27;;
3967;SDS011;9221;42.646;23.380;2023-03-14T10:01:29;15.33;;;4.87;;
3967;SDS011;9221;42.646;23.380;2023-03-14T10:03:57;14.90;;;4.40;;
3967;SDS011;9221;42.646;23.380;2023-03-14T10:06:29;9.20;;;4.30;;
3967;SDS011;9221;42.646;23.380;2023-03-14T10:08:56;10.77;;;4.30;;
3967;SDS011;9221;42.646;23.380;2023-03-14T10:11:22;16.23;;;4.37;;
3967;SDS011;9221;42.646;23.380;2023-03-14T10:14:10;7.53;;;4.00;;
3967;SDS011;9221;42.646;23.380;2023-03-14T10:16:40;13.10;;;4.63;;
3967;SDS011;9221;42.646;23.380;2023-03-14T10:19:12;15.60;;;5.00;;
3967;SDS011;9221;42.646;23.380;2023-03-14T10:21:42;11.30;;;4.50;;
3967;SDS011;9221;42.646;23.380;2023-03-14T10:26:48;8.87;;;4.13;;
3967;SDS011;9221;42.646;23.380;2023-03-14T10:29:17;8.10;;;3.10;;
3967;SDS011;9221;42.646;23.380;2023-03-14T10:31:53;8.03;;;3.13;;
3967;SDS011;9221;42.646;23.380;2023-03-14T10:34:33;13.63;;;3.17;;
3967;SDS011;9221;42.646;23.380;2023-03-14T10:37:44;14.47;;;3.20;;
3967;SDS011;9221;42.646;23.380;2023-03-14T10:39:55;8.73;;;3.20;;
3967;SDS011;9221;42.646;23.380;2023-03-14T10:42:30;5.63;;;2.50;;
3967;SDS011;9221;42.646;23.380;2023-03-14T10:45:03;9.30;;;2.37;;
3967;SDS011;9221;42.646;23.380;2023-03-14T10:47:32;4.73;;;2.30;;
3967;SDS011;9221;42.646;23.380;2023-03-14T10:50:18;4.23;;;2.30;;
3967;SDS011;9221;42.646;23.380;2023-03-14T10:52:52;6.33;;;2.93;;
3967;SDS011;9221;42.646;23.380;2023-03-14T10:55:18;6.40;;;3.00;;
3967;SDS011;9221;42.646;23.380;2023-03-14T10:57:44;8.93;;;3.20;;
3967;SDS011;9221;42.646;23.380;2023-03-14T11:00:16;9.10;;;3.37;;
3967;SDS011;9221;42.646;23.380;2023-03-14T11:02:47;4.93;;;2.80;;
3967;SDS011;9221;42.646;23.380;2023-03-14T11:08:32;6.10;;;2.50;;
3967;SDS011;9221;42.646;23.380;2023-03-14T11:11:16;5.60;;;2.53;;
3967;SDS011;9221;42.646;23.380;2023-03-14T11:13:51;6.43;;;2.97;;
3967;SDS011;9221;42.646;23.380;2023-03-14T11:16:30;7.35;;;3.10;;
3967;SDS011;9221;42.646;23.380;2023-03-14T11:29:54;11.20;;;2.67;;
3967;SDS011;9221;42.646;23.380;2023-03-14T11:32:35;9.43;;;2.30;;
3967;SDS011;9221;42.646;23.380;2023-03-14T11:35:05;4.40;;;2.73;;
3967;SDS011;9221;42.646;23.380;2023-03-14T11:37:45;5.77;;;2.33;;
3967;SDS011;9221;42.646;23.380;2023-03-14T11:45:35;9.17;;;1.83;;
3967;SDS011;9221;42.646;23.380;2023-03-14T11:48:10;6.10;;;1.90;;
3967;SDS011;9221;42.646;23.380;2023-03-14T11:50:36;5.13;;;3.30;;
3967;SDS011;9221;42.646;23.380;2023-03-14T11:53:18;6.47;;;3.10;;
3967;SDS011;9221;42.646;23.380;2023-03-14T11:55:50;5.83;;;2.27;;
3967;SDS011;9221;42.646;23.380;2023-03-14T11:58:19;7.90;;;2.10;;
3967;SDS011;9221;42.646;23.380;2023-03-14T12:00:48;4.73;;;2.00;;
3967;SDS011;9221;42.646;23.380;2023-03-14T12:09:03;10.43;;;1.70;;
3967;SDS011;9221;42.646;23.380;2023-03-14T12:11:34;4.77;;;1.90;;
3967;SDS011;9221;42.646;23.380;2023-03-14T12:17:13;4.07;;;1.80;;
3967;SDS011;9221;42.646;23.380;2023-03-14T12:19:45;2.83;;;1.90;;
3967;SDS011;9221;42.646;23.380;2023-03-14T12:22:25;5.10;;;2.00;;
3967;SDS011;9221;42.646;23.380;2023-03-14T12:25:00;1.97;;;1.00;;
3967;SDS011;9221;42.646;23.380;2023-03-14T12:30:30;2.97;;;1.43;;
3967;SDS011;9221;42.646;23.380;2023-03-14T12:35:49;7.87;;;1.30;;
3967;SDS011;9221;42.646;23.380;2023-03-14T12:41:03;4.90;;;1.40;;
3967;SDS011;9221;42.646;23.380;2023-03-14T12:43:31;3.70;;;1.10;;
3967;SDS011;9221;42.646;23.380;2023-03-14T12:51:30;6.10;;;1.10;;
3967;SDS011;9221;42.646;23.380;2023-03-14T12:54:07;3.10;;;1.50;;
3967;SDS011;9221;42.646;23.380;2023-03-14T13:01:27;6.57;;;1.30;;
3967;SDS011;9221;42.646;23.380;2023-03-14T13:03:54;1.70;;;1.10;;
3967;SDS011;9221;42.646;23.380;2023-03-14T13:11:53;4.43;;;1.27;;
3967;SDS011;9221;42.646;23.380;2023-03-14T13:14:19;2.40;;;1.37;;
3967;SDS011;9221;42.646;23.380;2023-03-14T13:16:46;6.07;;;1.50;;
3967;SDS011;9221;42.646;23.380;2023-03-14T13:19:19;6.43;;;0.97;;
3967;SDS011;9221;42.646;23.380;2023-03-14T13:21:48;6.53;;;1.30;;
3967;SDS011;9221;42.646;23.380;2023-03-14T13:24:20;2.70;;;1.20;;
3967;SDS011;9221;42.646;23.380;2023-03-14T13:26:47;2.70;;;1.20;;
3967;SDS011;9221;42.646;23.380;2023-03-14T13:29:15;7.97;;;1.30;;
3967;SDS011;9221;42.646;23.380;2023-03-14T13:31:44;2.40;;;0.97;;
3967;SDS011;9221;42.646;23.380;2023-03-14T13:34:11;1.87;;;1.20;;
3967;SDS011;9221;42.646;23.380;2023-03-14T13:36:37;4.00;;;1.40;;
3967;SDS011;9221;42.646;23.380;2023-03-14T13:39:03;1.30;;;1.00;;
3967;SDS011;9221;42.646;23.380;2023-03-14T13:41:36;2.20;;;1.30;;
3967;SDS011;9221;42.646;23.380;2023-03-14T13:44:08;2.10;;;1.30;;
3967;SDS011;9221;42.646;23.380;2023-03-14T13:46:39;10.23;;;1.57;;
3967;SDS011;9221;42.646;23.380;2023-03-14T13:49:05;4.07;;;1.50;;
3967;SDS011;9221;42.646;23.380;2023-03-14T13:51:34;4.40;;;1.20;;
3967;SDS011;9221;42.646;23.380;2023-03-14T13:54:11;3.23;;;1.07;;
3967;SDS011;9221;42.646;23.380;2023-03-14T13:56:42;3.60;;;1.27;;
3967;SDS011;9221;42.646;23.380;2023-03-14T13:59:25;6.87;;;1.03;;
3967;SDS011;9221;42.646;23.380;2023-03-14T14:01:55;3.63;;;1.03;;
3967;SDS011;9221;42.646;23.380;2023-03-14T14:04:24;2.97;;;1.17;;
3967;SDS011;9221;42.646;23.380;2023-03-14T14:06:55;5.63;;;1.67;;
3967;SDS011;9221;42.646;23.380;2023-03-14T14:09:29;1.70;;;0.93;;
3967;SDS011;9221;42.646;23.380;2023-03-14T14:12:05;2.27;;;1.03;;
3967;SDS011;9221;42.646;23.380;2023-03-14T14:14:37;2.50;;;1.47;;
3967;SDS011;9221;42.646;23.380;2023-03-14T14:17:20;4.20;;;1.23;;
3967;SDS011;9221;42.646;23.380;2023-03-14T14:19:49;3.53;;;1.00;;
3967;SDS011;9221;42.646;23.380;2023-03-14T14:22:17;4.93;;;1.50;;
3967;SDS011;9221;42.646;23.380;2023-03-14T14:24:43;5.50;;;1.57;;
3967;SDS011;9221;42.646;23.380;2023-03-14T14:27:13;3.07;;;1.30;;
3967;SDS011;9221;42.646;23.380;2023-03-14T14:30:42;2.07;;;1.20;;
3967;SDS011;9221;42.646;23.380;2023-03-14T14:33:10;3.03;;;1.13;;
3967;SDS011;9221;42.646;23.380;2023-03-14T14:35:41;3.30;;;1.00;;
3967;SDS011;9221;42.646;23.380;2023-03-14T14:38:16;3.13;;;1.30;;
3967;SDS011;9221;42.646;23.380;2023-03-14T14:40:46;6.23;;;1.00;;
3967;SDS011;9221;42.646;23.380;2023-03-14T14:43:20;2.30;;;1.20;;
3967;SDS011;9221;42.646;23.380;2023-03-14T14:45:48;7.70;;;1.00;;
3967;SDS011;9221;42.646;23.380;2023-03-14T14:48:18;4.93;;;1.10;;
3967;SDS011;9221;42.646;23.380;2023-03-14T14:56:18;1.83;;;1.23;;
3967;SDS011;9221;42.646;23.380;2023-03-14T14:58:47;3.10;;;1.20;;
3967;SDS011;9221;42.646;23.380;2023-03-14T15:03:45;3.37;;;1.27;;
3967;SDS011;9221;42.646;23.380;2023-03-14T15:06:13;1.60;;;1.00;;
3967;SDS011;9221;42.646;23.380;2023-03-14T15:08:40;2.40;;;1.20;;
3967;SDS011;9221;42.646;23.380;2023-03-14T15:11:09;2.90;;;1.40;;
3967;SDS011;9221;42.646;23.380;2023-03-14T15:13:41;5.03;;;1.40;;
3967;SDS011;9221;42.646;23.380;2023-03-14T15:16:14;1.70;;;0.93;;
3967;SDS011;9221;42.646;23.380;2023-03-14T15:18:42;5.13;;;1.00;;
3967;SDS011;9221;42.646;23.380;2023-03-14T15:21:10;3.13;;;1.33;;
3967;SDS011;9221;42.646;23.380;2023-03-14T15:23:35;3.20;;;1.20;;
3967;SDS011;9221;42.646;23.380;2023-03-14T15:26:01;3.00;;;0.73;;
3967;SDS011;9221;42.646;23.380;2023-03-14T15:28:28;5.77;;;1.00;;
3967;SDS011;9221;42.646;23.380;2023-03-14T15:30:55;7.60;;;1.13;;
3967;SDS011;9221;42.646;23.380;2023-03-14T15:33:22;3.83;;;1.20;;
3967;SDS011;9221;42.646;23.380;2023-03-14T15:35:49;3.10;;;1.40;;
3967;SDS011;9221;42.646;23.380;2023-03-14T15:38:16;2.47;;;1.43;;
3967;SDS011;9221;42.646;23.380;2023-03-14T15:40:48;4.53;;;1.40;;
3967;SDS011;9221;42.646;23.380;2023-03-14T15:43:14;2.57;;;1.17;;
3967;SDS011;9221;42.646;23.380;2023-03-14T15:45:40;1.80;;;1.03;;
3967;SDS011;9221;42.646;23.380;2023-03-14T15:48:06;2.63;;;1.23;;
3967;SDS011;9221;42.646;23.380;2023-03-14T15:50:40;4.00;;;1.13;;
3967;SDS011;9221;42.646;23.380;2023-03-14T15:53:06;3.13;;;1.17;;
3967;SDS011;9221;42.646;23.380;2023-03-14T15:55:32;4.97;;;1.63;;
3967;SDS011;9221;42.646;23.380;2023-03-14T15:57:57;4.83;;;1.97;;
3967;SDS011;9221;42.646;23.380;2023-03-14T16:00:24;5.27;;;1.73;;
3967;SDS011;9221;42.646;23.380;2023-03-14T16:02:49;4.70;;;1.60;;
3967;SDS011;9221;42.646;23.380;2023-03-14T16:05:15;2.57;;;1.80;;
3967;SDS011;9221;42.646;23.380;2023-03-14T16:07:41;6.60;;;1.60;;
3967;SDS011;9221;42.646;23.380;2023-03-14T16:10:09;4.53;;;2.10;;